sensor_id;sensor_type;location;lat;lon;timestamp;pressure;altitude;pressure_sealevel;temperature;humidity
79347;BME280;68815;48.810;44.482;2023-07-29T00:02:51;99447;;;23.1;63.4
79347;BME280;68815;48.810;44.482;2023-07-29T00:05:52;99440;;;23.2;63
79347;BME280;68815;48.810;44.482;2023-07-29T00:08:54;99439;;;23.3;62.2
79347;BME280;68815;48.810;44.482;2023-07-29T00:11:56;99411;;;23.3;61.5
79347;BME280;68815;48.810;44.482;2023-07-29T00:14:57;99391;;;23.2;61.8
79347;BME280;68815;48.810;44.482;2023-07-29T00:17:59;99373;;;23.3;61.6
79347;BME280;68815;48.810;44.482;2023-07-29T00:21:01;99369;;;23.3;61.2
79347;BME280;68815;48.810;44.482;2023-07-29T00:24:03;99395;;;22.9;62.2
79347;BME280;68815;48.810;44.482;2023-07-29T00:27:05;99404;;;22.9;62.2
79347;BME280;68815;48.810;44.482;2023-07-29T00:30:07;99403;;;22.9;62.2
79347;BME280;68815;48.810;44.482;2023-07-29T00:33:09;99390;;;22.9;62.2
79347;BME280;68815;48.810;44.482;2023-07-29T00:36:11;99398;;;22.8;62.7
79347;BME280;68815;48.810;44.482;2023-07-29T00:39:12;99410;;;22.8;62.1
79347;BME280;68815;48.810;44.482;2023-07-29T00:42:14;99419;;;22.9;61.8
79347;BME280;68815;48.810;44.482;2023-07-29T00:45:16;99431;;;23;61.4
79347;BME280;68815;48.810;44.482;2023-07-29T00:48:19;99447;;;22.8;62.1
79347;BME280;68815;48.810;44.482;2023-07-29T00:51:20;99459;;;22.8;62
79347;BME280;68815;48.810;44.482;2023-07-29T00:54:22;99470;;;22.9;61.6
79347;BME280;68815;48.810;44.482;2023-07-29T00:57:24;99463;;;22.8;61.6
79347;BME280;68815;48.810;44.482;2023-07-29T01:00:26;99460;;;22.4;62.9
79347;BME280;68815;48.810;44.482;2023-07-29T01:03:28;99461;;;22.6;62.1
79347;BME280;68815;48.810;44.482;2023-07-29T01:06:35;99457;;;22.7;61.8
79347;BME280;68815;48.810;44.482;2023-07-29T01:09:48;99460;;;22.8;61
79347;BME280;68815;48.810;44.482;2023-07-29T01:12:56;99454;;;22.8;60.7
79347;BME280;68815;48.810;44.482;2023-07-29T01:16:04;99456;;;22.7;60.7
79347;BME280;68815;48.810;44.482;2023-07-29T01:22:33;99467;;;22.6;60.3
79347;BME280;68815;48.810;44.482;2023-07-29T01:25:35;99468;;;22.8;60
79347;BME280;68815;48.810;44.482;2023-07-29T01:28:36;99464;;;22.6;60.2
79347;BME280;68815;48.810;44.482;2023-07-29T01:31:43;99447;;;22.6;60
79347;BME280;68815;48.810;44.482;2023-07-29T01:34:53;99440;;;22.5;60.5
79347;BME280;68815;48.810;44.482;2023-07-29T01:38:05;99453;;;22.4;60.6
79347;BME280;68815;48.810;44.482;2023-07-29T01:41:09;99462;;;22.4;60.2
79347;BME280;68815;48.810;44.482;2023-07-29T01:44:11;99471;;;22.4;60
79347;BME280;68815;48.810;44.482;2023-07-29T01:47:13;99482;;;22.5;59.3
79347;BME280;68815;48.810;44.482;2023-07-29T01:50:15;99485;;;22.4;60
79347;BME280;68815;48.810;44.482;2023-07-29T01:53:16;99493;;;22.4;60.4
79347;BME280;68815;48.810;44.482;2023-07-29T01:56:18;99492;;;22.4;60
79347;BME280;68815;48.810;44.482;2023-07-29T01:59:19;99480;;;22.4;59.6
79347;BME280;68815;48.810;44.482;2023-07-29T02:02:21;99479;;;22.4;59.5
79347;BME280;68815;48.810;44.482;2023-07-29T02:05:22;99487;;;22.4;59.8
79347;BME280;68815;48.810;44.482;2023-07-29T02:08:23;99488;;;22.5;59.4
79347;BME280;68815;48.810;44.482;2023-07-29T02:11:25;99484;;;22.4;59.2
79347;BME280;68815;48.810;44.482;2023-07-29T02:14:26;99483;;;22.4;59.2
79347;BME280;68815;48.810;44.482;2023-07-29T02:17:28;99482;;;22.6;58.6
79347;BME280;68815;48.810;44.482;2023-07-29T02:20:29;99475;;;22.4;58.8
79347;BME280;68815;48.810;44.482;2023-07-29T02:23:31;99485;;;22.3;58.8
79347;BME280;68815;48.810;44.482;2023-07-29T02:26:32;99484;;;22.2;59.2
79347;BME280;68815;48.810;44.482;2023-07-29T02:29:34;99484;;;22.3;58.7
79347;BME280;68815;48.810;44.482;2023-07-29T02:32:35;99490;;;22.2;59.1
79347;BME280;68815;48.810;44.482;2023-07-29T02:35:37;99490;;;22.2;59.1
79347;BME280;68815;48.810;44.482;2023-07-29T02:38:39;99484;;;22.1;59.5
79347;BME280;68815;48.810;44.482;2023-07-29T02:41:42;99483;;;22.3;59.2
79347;BME280;68815;48.810;44.482;2023-07-29T02:44:44;99489;;;21.9;60.1
79347;BME280;68815;48.810;44.482;2023-07-29T02:47:45;99498;;;22;59.7
79347;BME280;68815;48.810;44.482;2023-07-29T02:50:47;99495;;;21.8;60.1
79347;BME280;68815;48.810;44.482;2023-07-29T02:53:48;99491;;;21.7;60.2
79347;BME280;68815;48.810;44.482;2023-07-29T02:56:50;99489;;;21.7;60.2
79347;BME280;68815;48.810;44.482;2023-07-29T02:59:52;99492;;;21.9;59.9
79347;BME280;68815;48.810;44.482;2023-07-29T03:02:53;99484;;;22;59.5
79347;BME280;68815;48.810;44.482;2023-07-29T03:05:57;99479;;;22;59.5
79347;BME280;68815;48.810;44.482;2023-07-29T03:08:58;99473;;;21.9;60
79347;BME280;68815;48.810;44.482;2023-07-29T03:12:00;99479;;;21.9;60.3
79347;BME280;68815;48.810;44.482;2023-07-29T03:15:03;99477;;;22;59.8
79347;BME280;68815;48.810;44.482;2023-07-29T03:18:05;99472;;;22.3;59.1
79347;BME280;68815;48.810;44.482;2023-07-29T03:21:07;99474;;;22.4;58.8
79347;BME280;68815;48.810;44.482;2023-07-29T03:24:09;99480;;;22.3;58.9
79347;BME280;68815;48.810;44.482;2023-07-29T03:27:11;99481;;;22.1;59.3
79347;BME280;68815;48.810;44.482;2023-07-29T03:30:12;99479;;;22.1;59.5
79347;BME280;68815;48.810;44.482;2023-07-29T03:33:14;99479;;;22.1;60
79347;BME280;68815;48.810;44.482;2023-07-29T03:36:15;99475;;;21.5;61.8
79347;BME280;68815;48.810;44.482;2023-07-29T03:39:17;99486;;;21.4;62.6
79347;BME280;68815;48.810;44.482;2023-07-29T03:42:19;99476;;;21.8;61.6
79347;BME280;68815;48.810;44.482;2023-07-29T03:45:20;99476;;;21.4;62.2
79347;BME280;68815;48.810;44.482;2023-07-29T03:48:22;99474;;;21.6;62.2
79347;BME280;68815;48.810;44.482;2023-07-29T03:51:23;99477;;;21.8;61.4
79347;BME280;68815;48.810;44.482;2023-07-29T03:54:25;99485;;;21.3;63
79347;BME280;68815;48.810;44.482;2023-07-29T03:57:26;99476;;;21.3;63.7
79347;BME280;68815;48.810;44.482;2023-07-29T04:00:28;99475;;;21.7;62.2
79347;BME280;68815;48.810;44.482;2023-07-29T04:03:30;99467;;;21.8;61.8
79347;BME280;68815;48.810;44.482;2023-07-29T04:06:31;99469;;;21.5;63
79347;BME280;68815;48.810;44.482;2023-07-29T04:09:33;99469;;;22.2;61.5
79347;BME280;68815;48.810;44.482;2023-07-29T04:12:34;99457;;;22.7;59.9
79347;BME280;68815;48.810;44.482;2023-07-29T04:15:36;99468;;;22.7;59.9
79347;BME280;68815;48.810;44.482;2023-07-29T04:18:37;99466;;;23.3;58.5
79347;BME280;68815;48.810;44.482;2023-07-29T04:21:39;99469;;;23.8;56.7
79347;BME280;68815;48.810;44.482;2023-07-29T04:24:41;99478;;;24;56
79347;BME280;68815;48.810;44.482;2023-07-29T04:27:43;99468;;;23.7;56.2
79347;BME280;68815;48.810;44.482;2023-07-29T04:30:50;99461;;;24.3;55.3
79347;BME280;68815;48.810;44.482;2023-07-29T04:33:52;99453;;;24.3;55.4
79347;BME280;68815;48.810;44.482;2023-07-29T04:36:53;99444;;;24.8;54.6
79347;BME280;68815;48.810;44.482;2023-07-29T04:39:55;99445;;;24.5;54.9
79347;BME280;68815;48.810;44.482;2023-07-29T04:42:56;99445;;;24;56.4
79347;BME280;68815;48.810;44.482;2023-07-29T04:45:59;99446;;;24;56.8
79347;BME280;68815;48.810;44.482;2023-07-29T04:49:00;99436;;;23.3;58.3
79347;BME280;68815;48.810;44.482;2023-07-29T04:52:02;99447;;;23.1;59.2
79347;BME280;68815;48.810;44.482;2023-07-29T04:55:04;99443;;;22.6;60.4
79347;BME280;68815;48.810;44.482;2023-07-29T04:58:05;99446;;;22.8;60.8
79347;BME280;68815;48.810;44.482;2023-07-29T05:01:07;99434;;;22.5;61.6
79347;BME280;68815;48.810;44.482;2023-07-29T05:04:08;99424;;;22.5;61.2
79347;BME280;68815;48.810;44.482;2023-07-29T05:07:10;99433;;;23.3;59.2
79347;BME280;68815;48.810;44.482;2023-07-29T05:10:11;99429;;;23.9;57.5
79347;BME280;68815;48.810;44.482;2023-07-29T05:13:13;99434;;;24.2;56.4
79347;BME280;68815;48.810;44.482;2023-07-29T05:16:14;99424;;;24.7;55.4
79347;BME280;68815;48.810;44.482;2023-07-29T05:19:16;99436;;;24.2;57
79347;BME280;68815;48.810;44.482;2023-07-29T05:22:18;99422;;;24.8;55.4
79347;BME280;68815;48.810;44.482;2023-07-29T05:25:19;99430;;;24.1;57.1
79347;BME280;68815;48.810;44.482;2023-07-29T05:28:21;99429;;;23.7;58
79347;BME280;68815;48.810;44.482;2023-07-29T05:31:23;99417;;;24.1;56.5
79347;BME280;68815;48.810;44.482;2023-07-29T05:34:26;99423;;;23.3;59.2
79347;BME280;68815;48.810;44.482;2023-07-29T05:37:27;99421;;;23.1;59.5
79347;BME280;68815;48.810;44.482;2023-07-29T05:40:29;99419;;;23.2;59.9
79347;BME280;68815;48.810;44.482;2023-07-29T05:43:30;99412;;;24.4;57.1
79347;BME280;68815;48.810;44.482;2023-07-29T05:46:32;99423;;;23.4;59.7
79347;BME280;68815;48.810;44.482;2023-07-29T05:49:34;99423;;;22.9;60.8
79347;BME280;68815;48.810;44.482;2023-07-29T05:52:37;99426;;;22.6;61.4
79347;BME280;68815;48.810;44.482;2023-07-29T05:55:38;99415;;;22.4;62.8
79347;BME280;68815;48.810;44.482;2023-07-29T05:58:40;99409;;;22.5;63
79347;BME280;68815;48.810;44.482;2023-07-29T06:01:41;99415;;;22.4;62.8
79347;BME280;68815;48.810;44.482;2023-07-29T06:04:43;99407;;;22.3;63.4
79347;BME280;68815;48.810;44.482;2023-07-29T06:07:44;99415;;;21.9;64.8
79347;BME280;68815;48.810;44.482;2023-07-29T06:10:46;99410;;;22.6;62.9
79347;BME280;68815;48.810;44.482;2023-07-29T06:13:47;99406;;;23.1;61.2
79347;BME280;68815;48.810;44.482;2023-07-29T06:16:49;99405;;;23.3;60.6
79347;BME280;68815;48.810;44.482;2023-07-29T06:19:50;99404;;;22.8;61.9
79347;BME280;68815;48.810;44.482;2023-07-29T06:22:52;99402;;;22.7;62.6
79347;BME280;68815;48.810;44.482;2023-07-29T06:25:53;99407;;;22.9;61.4
79347;BME280;68815;48.810;44.482;2023-07-29T06:28:55;99400;;;22.4;63.8
79347;BME280;68815;48.810;44.482;2023-07-29T06:31:58;99392;;;22.5;63.9
79347;BME280;68815;48.810;44.482;2023-07-29T06:35:00;99398;;;22.9;62.8
79347;BME280;68815;48.810;44.482;2023-07-29T06:38:03;99388;;;22.8;62.8
79347;BME280;68815;48.810;44.482;2023-07-29T06:41:04;99381;;;22.7;63.4
79347;BME280;68815;48.810;44.482;2023-07-29T06:44:06;99389;;;22.9;63.1
79347;BME280;68815;48.810;44.482;2023-07-29T06:47:07;99385;;;22.7;63.5
79347;BME280;68815;48.810;44.482;2023-07-29T06:50:09;99396;;;22.8;63.3
79347;BME280;68815;48.810;44.482;2023-07-29T06:53:10;99392;;;23.6;60.9
79347;BME280;68815;48.810;44.482;2023-07-29T06:56:12;99372;;;24.4;58.3
79347;BME280;68815;48.810;44.482;2023-07-29T06:59:13;99358;;;24.9;55.6
79347;BME280;68815;48.810;44.482;2023-07-29T07:02:15;99360;;;24.6;56.2
79347;BME280;68815;48.810;44.482;2023-07-29T07:05:16;99356;;;24.1;57.6
79347;BME280;68815;48.810;44.482;2023-07-29T07:08:18;99349;;;24.1;57.6
79347;BME280;68815;48.810;44.482;2023-07-29T07:11:19;99355;;;24.6;55.6
79347;BME280;68815;48.810;44.482;2023-07-29T07:14:21;99349;;;24.9;55.3
79347;BME280;68815;48.810;44.482;2023-07-29T07:17:22;99350;;;25;55.5
79347;BME280;68815;48.810;44.482;2023-07-29T07:20:24;99347;;;24.7;56
79347;BME280;68815;48.810;44.482;2023-07-29T07:23:26;99339;;;24.5;56.7
79347;BME280;68815;48.810;44.482;2023-07-29T07:26:27;99348;;;24.1;57.5
79347;BME280;68815;48.810;44.482;2023-07-29T07:29:29;99345;;;23.7;58.3
79347;BME280;68815;48.810;44.482;2023-07-29T07:32:30;99351;;;23.7;58.5
79347;BME280;68815;48.810;44.482;2023-07-29T07:35:32;99359;;;23.3;61.8
79347;BME280;68815;48.810;44.482;2023-07-29T07:38:34;99357;;;23.3;63.4
79347;BME280;68815;48.810;44.482;2023-07-29T07:41:36;99357;;;23.6;64.1
79347;BME280;68815;48.810;44.482;2023-07-29T07:44:37;99349;;;23.5;63.7
79347;BME280;68815;48.810;44.482;2023-07-29T07:47:39;99347;;;23.5;63.6
79347;BME280;68815;48.810;44.482;2023-07-29T07:50:40;99348;;;23.6;63.1
79347;BME280;68815;48.810;44.482;2023-07-29T07:53:42;99347;;;23.4;64.1
79347;BME280;68815;48.810;44.482;2023-07-29T07:56:43;99335;;;23.3;63.3
79347;BME280;68815;48.810;44.482;2023-07-29T07:59:45;99353;;;23.4;61.3
79347;BME280;68815;48.810;44.482;2023-07-29T08:02:46;99353;;;23.5;61.3
79347;BME280;68815;48.810;44.482;2023-07-29T08:05:48;99357;;;23.6;61.8
79347;BME280;68815;48.810;44.482;2023-07-29T08:08:49;99357;;;23.7;62.4
79347;BME280;68815;48.810;44.482;2023-07-29T08:11:51;99355;;;23.5;62.6
79347;BME280;68815;48.810;44.482;2023-07-29T08:14:52;99353;;;23.1;65.4
79347;BME280;68815;48.810;44.482;2023-07-29T08:17:54;99361;;;23.1;67.2
79347;BME280;68815;48.810;44.482;2023-07-29T08:20:56;99367;;;23.4;64.5
79347;BME280;68815;48.810;44.482;2023-07-29T08:23:58;99363;;;23.6;63.5
79347;BME280;68815;48.810;44.482;2023-07-29T08:27:00;99358;;;23.6;63.4
79347;BME280;68815;48.810;44.482;2023-07-29T08:30:02;99355;;;23.3;65.4
79347;BME280;68815;48.810;44.482;2023-07-29T08:33:07;99345;;;23;65.5
79347;BME280;68815;48.810;44.482;2023-07-29T08:36:08;99356;;;23.7;65.2
79347;BME280;68815;48.810;44.482;2023-07-29T08:39:11;99343;;;24.5;61.3
79347;BME280;68815;48.810;44.482;2023-07-29T08:42:13;99343;;;24.7;59.6
79347;BME280;68815;48.810;44.482;2023-07-29T08:45:17;99350;;;24.6;60.3
79347;BME280;68815;48.810;44.482;2023-07-29T08:48:23;99350;;;24.3;62.2
79347;BME280;68815;48.810;44.482;2023-07-29T08:51:29;99341;;;24.2;62.9
79347;BME280;68815;48.810;44.482;2023-07-29T08:54:32;99338;;;24.2;63.2
79347;BME280;68815;48.810;44.482;2023-07-29T08:57:34;99333;;;24.1;63.4
79347;BME280;68815;48.810;44.482;2023-07-29T09:00:37;99328;;;24.1;64
79347;BME280;68815;48.810;44.482;2023-07-29T09:03:39;99328;;;23.8;66.8
79347;BME280;68815;48.810;44.482;2023-07-29T09:06:41;99317;;;24.2;66.3
79347;BME280;68815;48.810;44.482;2023-07-29T09:09:44;99313;;;24.3;64.5
79347;BME280;68815;48.810;44.482;2023-07-29T09:12:45;99319;;;24.4;64.7
79347;BME280;68815;48.810;44.482;2023-07-29T09:15:47;99321;;;24.7;62.7
79347;BME280;68815;48.810;44.482;2023-07-29T09:18:49;99316;;;25;62.6
79347;BME280;68815;48.810;44.482;2023-07-29T09:21:50;99321;;;24.9;61.9
79347;BME280;68815;48.810;44.482;2023-07-29T09:24:52;99313;;;24.8;61.3
79347;BME280;68815;48.810;44.482;2023-07-29T09:27:58;99318;;;24.8;61.1
79347;BME280;68815;48.810;44.482;2023-07-29T09:31:01;99316;;;24.7;59.5
79347;BME280;68815;48.810;44.482;2023-07-29T09:34:03;99313;;;24.6;59
79347;BME280;68815;48.810;44.482;2023-07-29T09:37:05;99310;;;24.7;57.1
79347;BME280;68815;48.810;44.482;2023-07-29T09:40:14;99298;;;24.8;57
79347;BME280;68815;48.810;44.482;2023-07-29T09:43:16;99301;;;25;56.5
79347;BME280;68815;48.810;44.482;2023-07-29T09:46:18;99302;;;25;57.2
79347;BME280;68815;48.810;44.482;2023-07-29T09:49:22;99290;;;24.9;57.9
79347;BME280;68815;48.810;44.482;2023-07-29T09:52:24;99291;;;24.9;56.4
79347;BME280;68815;48.810;44.482;2023-07-29T09:55:25;99298;;;24.9;57
79347;BME280;68815;48.810;44.482;2023-07-29T09:58:27;99299;;;24.6;58
79347;BME280;68815;48.810;44.482;2023-07-29T10:01:29;99310;;;24.6;58
79347;BME280;68815;48.810;44.482;2023-07-29T10:04:32;99310;;;24.6;58.3
79347;BME280;68815;48.810;44.482;2023-07-29T10:07:34;99310;;;24.5;58.4
79347;BME280;68815;48.810;44.482;2023-07-29T10:10:35;99318;;;24.6;58.1
79347;BME280;68815;48.810;44.482;2023-07-29T10:13:38;99321;;;24.5;56.8
79347;BME280;68815;48.810;44.482;2023-07-29T10:16:40;99322;;;24.4;58.2
79347;BME280;68815;48.810;44.482;2023-07-29T10:19:42;99326;;;24.5;58.3
79347;BME280;68815;48.810;44.482;2023-07-29T10:22:47;99323;;;24.7;56.8
79347;BME280;68815;48.810;44.482;2023-07-29T10:25:54;99322;;;24.8;56
79347;BME280;68815;48.810;44.482;2023-07-29T10:28:59;99324;;;24.8;56.6
79347;BME280;68815;48.810;44.482;2023-07-29T10:32:02;99327;;;24.8;56.1
79347;BME280;68815;48.810;44.482;2023-07-29T10:35:04;99322;;;24.8;56.6
79347;BME280;68815;48.810;44.482;2023-07-29T10:38:06;99329;;;24.9;55.9
79347;BME280;68815;48.810;44.482;2023-07-29T10:41:08;99325;;;24.9;56.5
79347;BME280;68815;48.810;44.482;2023-07-29T10:47:31;99320;;;25;57.2
79347;BME280;68815;48.810;44.482;2023-07-29T10:50:32;99311;;;25;57.4
79347;BME280;68815;48.810;44.482;2023-07-29T10:53:36;99314;;;24.7;59.1
79347;BME280;68815;48.810;44.482;2023-07-29T10:56:41;99315;;;24.7;60.5
79347;BME280;68815;48.810;44.482;2023-07-29T10:59:54;99318;;;24.5;61.5
79347;BME280;68815;48.810;44.482;2023-07-29T11:03:00;99326;;;24.5;61.1
79347;BME280;68815;48.810;44.482;2023-07-29T11:06:04;99320;;;24.2;62.9
79347;BME280;68815;48.810;44.482;2023-07-29T11:12:41;99328;;;24.2;63
79347;BME280;68815;48.810;44.482;2023-07-29T11:15:45;99322;;;24.3;63.3
79347;BME280;68815;48.810;44.482;2023-07-29T11:18:47;99331;;;24.2;62.9
79347;BME280;68815;48.810;44.482;2023-07-29T11:21:49;99331;;;24.1;62.8
79347;BME280;68815;48.810;44.482;2023-07-29T11:24:50;99347;;;24.1;62.5
79347;BME280;68815;48.810;44.482;2023-07-29T11:27:55;99372;;;23.3;69.2
79347;BME280;68815;48.810;44.482;2023-07-29T11:30:57;99376;;;22.8;73.1
79347;BME280;68815;48.810;44.482;2023-07-29T11:33:59;99351;;;22.6;75.3
79347;BME280;68815;48.810;44.482;2023-07-29T11:37:01;99356;;;22.5;76.2
79347;BME280;68815;48.810;44.482;2023-07-29T11:40:03;99352;;;23;75.2
79347;BME280;68815;48.810;44.482;2023-07-29T11:43:06;99354;;;23.5;73.6
79347;BME280;68815;48.810;44.482;2023-07-29T11:46:07;99359;;;23.6;69.8
79347;BME280;68815;48.810;44.482;2023-07-29T11:49:09;99368;;;23.8;71.6
79347;BME280;68815;48.810;44.482;2023-07-29T11:52:11;99368;;;23.7;70.7
79347;BME280;68815;48.810;44.482;2023-07-29T11:55:15;99360;;;23.8;68.3
79347;BME280;68815;48.810;44.482;2023-07-29T11:58:16;99348;;;24;66.9
79347;BME280;68815;48.810;44.482;2023-07-29T12:01:18;99351;;;24;66.9
79347;BME280;68815;48.810;44.482;2023-07-29T12:04:19;99352;;;23.7;67.6
79347;BME280;68815;48.810;44.482;2023-07-29T12:07:21;99350;;;23.5;68.8
79347;BME280;68815;48.810;44.482;2023-07-29T12:10:24;99347;;;23.3;69.3
79347;BME280;68815;48.810;44.482;2023-07-29T12:13:25;99353;;;23.4;67.9
79347;BME280;68815;48.810;44.482;2023-07-29T12:16:27;99368;;;23.6;67
79347;BME280;68815;48.810;44.482;2023-07-29T12:19:32;99358;;;23.5;69
79347;BME280;68815;48.810;44.482;2023-07-29T12:22:34;99363;;;23.3;71.4
79347;BME280;68815;48.810;44.482;2023-07-29T12:25:35;99363;;;23.3;70.5
79347;BME280;68815;48.810;44.482;2023-07-29T12:28:37;99367;;;23.1;72.1
79347;BME280;68815;48.810;44.482;2023-07-29T12:31:38;99370;;;23.3;71.6
79347;BME280;68815;48.810;44.482;2023-07-29T12:34:40;99378;;;23.4;70.4
79347;BME280;68815;48.810;44.482;2023-07-29T12:37:42;99381;;;23.5;72.2
79347;BME280;68815;48.810;44.482;2023-07-29T12:40:43;99382;;;23.2;72.4
79347;BME280;68815;48.810;44.482;2023-07-29T12:43:45;99396;;;23.5;71.1
79347;BME280;68815;48.810;44.482;2023-07-29T12:46:47;99391;;;23.6;69.8
79347;BME280;68815;48.810;44.482;2023-07-29T12:49:48;99382;;;23.3;70.3
79347;BME280;68815;48.810;44.482;2023-07-29T12:52:49;99384;;;23.4;69.9
79347;BME280;68815;48.810;44.482;2023-07-29T12:55:51;99391;;;23.6;69.4
79347;BME280;68815;48.810;44.482;2023-07-29T12:58:52;99389;;;23.7;67.2
79347;BME280;68815;48.810;44.482;2023-07-29T13:01:54;99394;;;23.7;67.7
79347;BME280;68815;48.810;44.482;2023-07-29T13:04:55;99395;;;23.2;69.2
79347;BME280;68815;48.810;44.482;2023-07-29T13:07:57;99383;;;23.2;69.4
79347;BME280;68815;48.810;44.482;2023-07-29T13:10:59;99385;;;23.4;68.3
79347;BME280;68815;48.810;44.482;2023-07-29T13:14:00;99385;;;23.6;67.3
79347;BME280;68815;48.810;44.482;2023-07-29T13:17:04;99390;;;23.8;66.6
79347;BME280;68815;48.810;44.482;2023-07-29T13:20:06;99390;;;23.7;67
79347;BME280;68815;48.810;44.482;2023-07-29T13:23:08;99391;;;23.4;68.1
79347;BME280;68815;48.810;44.482;2023-07-29T13:26:09;99390;;;23.7;66.2
79347;BME280;68815;48.810;44.482;2023-07-29T13:29:11;99392;;;23.6;66.4
79347;BME280;68815;48.810;44.482;2023-07-29T13:32:13;99393;;;23.8;66.2
79347;BME280;68815;48.810;44.482;2023-07-29T13:35:14;99393;;;23.6;66.4
79347;BME280;68815;48.810;44.482;2023-07-29T13:38:16;99393;;;23.4;66.6
79347;BME280;68815;48.810;44.482;2023-07-29T13:41:18;99394;;;23.6;65.9
79347;BME280;68815;48.810;44.482;2023-07-29T13:44:19;99402;;;23.8;65.3
79347;BME280;68815;48.810;44.482;2023-07-29T13:47:21;99402;;;23.8;64.6
79347;BME280;68815;48.810;44.482;2023-07-29T13:50:22;99409;;;23.6;64.9
79347;BME280;68815;48.810;44.482;2023-07-29T13:53:24;99405;;;23.3;66.4
79347;BME280;68815;48.810;44.482;2023-07-29T13:56:25;99399;;;23.1;66.6
79347;BME280;68815;48.810;44.482;2023-07-29T13:59:26;99403;;;23.5;65.1
79347;BME280;68815;48.810;44.482;2023-07-29T14:02:28;99412;;;23.4;64.9
79347;BME280;68815;48.810;44.482;2023-07-29T14:05:30;99424;;;23.4;64.5
79347;BME280;68815;48.810;44.482;2023-07-29T14:08:31;99421;;;23.4;64.1
79347;BME280;68815;48.810;44.482;2023-07-29T14:11:33;99420;;;23.5;63.6
79347;BME280;68815;48.810;44.482;2023-07-29T14:14:34;99424;;;23.6;62.6
79347;BME280;68815;48.810;44.482;2023-07-29T14:17:36;99419;;;23.3;63.2
79347;BME280;68815;48.810;44.482;2023-07-29T14:20:38;99421;;;23.2;63.8
79347;BME280;68815;48.810;44.482;2023-07-29T14:23:39;99415;;;23;64.2
79347;BME280;68815;48.810;44.482;2023-07-29T14:26:41;99432;;;22.8;64.7
79347;BME280;68815;48.810;44.482;2023-07-29T14:29:48;99432;;;22.9;64.2
79347;BME280;68815;48.810;44.482;2023-07-29T14:32:49;99436;;;22.9;62.7
79347;BME280;68815;48.810;44.482;2023-07-29T14:35:51;99443;;;23;62.5
79347;BME280;68815;48.810;44.482;2023-07-29T14:38:52;99446;;;23;62.8
79347;BME280;68815;48.810;44.482;2023-07-29T14:41:54;99444;;;23;62.7
79347;BME280;68815;48.810;44.482;2023-07-29T14:44:55;99454;;;22.8;63.5
79347;BME280;68815;48.810;44.482;2023-07-29T14:47:57;99454;;;22.5;64.5
79347;BME280;68815;48.810;44.482;2023-07-29T14:50:58;99455;;;22.6;64.3
79347;BME280;68815;48.810;44.482;2023-07-29T14:54:00;99457;;;22.8;63.5
79347;BME280;68815;48.810;44.482;2023-07-29T14:57:02;99467;;;22.9;62.8
79347;BME280;68815;48.810;44.482;2023-07-29T15:00:04;99473;;;22.8;63.1
79347;BME280;68815;48.810;44.482;2023-07-29T15:03:07;99469;;;22.9;62.4
79347;BME280;68815;48.810;44.482;2023-07-29T15:06:09;99471;;;22.9;62.8
79347;BME280;68815;48.810;44.482;2023-07-29T15:09:10;99477;;;22.6;63.8
79347;BME280;68815;48.810;44.482;2023-07-29T15:12:12;99480;;;22.7;63.4
79347;BME280;68815;48.810;44.482;2023-07-29T15:15:13;99485;;;22.7;63.4
79347;BME280;68815;48.810;44.482;2023-07-29T15:18:15;99491;;;22.7;63.6
79347;BME280;68815;48.810;44.482;2023-07-29T15:21:16;99491;;;22.6;63.8
79347;BME280;68815;48.810;44.482;2023-07-29T15:24:18;99488;;;22.7;64.1
79347;BME280;68815;48.810;44.482;2023-07-29T15:27:19;99499;;;22.5;64.3
79347;BME280;68815;48.810;44.482;2023-07-29T15:30:22;99500;;;22.6;64
79347;BME280;68815;48.810;44.482;2023-07-29T15:33:23;99507;;;22.4;64.4
79347;BME280;68815;48.810;44.482;2023-07-29T15:36:25;99499;;;22.6;63.5
79347;BME280;68815;48.810;44.482;2023-07-29T15:39:27;99503;;;22.7;62.9
79347;BME280;68815;48.810;44.482;2023-07-29T15:42:29;99519;;;22.4;64
79347;BME280;68815;48.810;44.482;2023-07-29T15:45:30;99520;;;22.4;64.3
79347;BME280;68815;48.810;44.482;2023-07-29T15:48:32;99523;;;22.2;64.6
79347;BME280;68815;48.810;44.482;2023-07-29T15:51:34;99523;;;22.1;65.2
79347;BME280;68815;48.810;44.482;2023-07-29T15:54:35;99526;;;22.3;64.5
79347;BME280;68815;48.810;44.482;2023-07-29T15:57:37;99530;;;22;65.7
79347;BME280;68815;48.810;44.482;2023-07-29T16:00:39;99540;;;22;65.2
79347;BME280;68815;48.810;44.482;2023-07-29T16:03:41;99546;;;21.9;65.3
79347;BME280;68815;48.810;44.482;2023-07-29T16:06:42;99549;;;22.2;64.6
79347;BME280;68815;48.810;44.482;2023-07-29T16:09:44;99549;;;22.1;64.6
79347;BME280;68815;48.810;44.482;2023-07-29T16:12:45;99551;;;22.1;64.4
79347;BME280;68815;48.810;44.482;2023-07-29T16:15:47;99551;;;22.3;63.7
79347;BME280;68815;48.810;44.482;2023-07-29T16:18:48;99552;;;22;64.4
79347;BME280;68815;48.810;44.482;2023-07-29T16:21:50;99553;;;21.7;65.1
79347;BME280;68815;48.810;44.482;2023-07-29T16:24:51;99563;;;21.7;64.7
79347;BME280;68815;48.810;44.482;2023-07-29T16:27:53;99563;;;21.8;64.6
79347;BME280;68815;48.810;44.482;2023-07-29T16:30:55;99566;;;21.9;64.1
79347;BME280;68815;48.810;44.482;2023-07-29T16:33:57;99563;;;21.8;64.5
79347;BME280;68815;48.810;44.482;2023-07-29T16:36:59;99566;;;21.8;64.6
79347;BME280;68815;48.810;44.482;2023-07-29T16:40:00;99577;;;21.7;64.9
79347;BME280;68815;48.810;44.482;2023-07-29T16:43:02;99581;;;21.8;64
79347;BME280;68815;48.810;44.482;2023-07-29T16:46:04;99589;;;21.8;63.8
79347;BME280;68815;48.810;44.482;2023-07-29T16:49:05;99593;;;21.8;63.8
79347;BME280;68815;48.810;44.482;2023-07-29T16:52:07;99591;;;21.8;63.6
79347;BME280;68815;48.810;44.482;2023-07-29T16:55:09;99595;;;21.8;63.5
79347;BME280;68815;48.810;44.482;2023-07-29T16:58:12;99605;;;21.9;63.2
79347;BME280;68815;48.810;44.482;2023-07-29T17:01:13;99603;;;21.9;62.7
79347;BME280;68815;48.810;44.482;2023-07-29T17:04:15;99610;;;22;62.1
79347;BME280;68815;48.810;44.482;2023-07-29T17:07:16;99617;;;22;62
79347;BME280;68815;48.810;44.482;2023-07-29T17:10:18;99621;;;21.9;63
79347;BME280;68815;48.810;44.482;2023-07-29T17:13:19;99615;;;21.8;62.8
79347;BME280;68815;48.810;44.482;2023-07-29T17:16:21;99626;;;21.7;62.9